createdAt,value
2019-03-24T00:01:43.318Z,91.50
2019-03-24T00:04:13.758Z,91.40
2019-03-24T00:06:43.982Z,91.30
2019-03-24T00:09:14.267Z,91.20
2019-03-24T00:11:44.535Z,91.30
2019-03-24T00:14:14.919Z,91.10
2019-03-24T00:16:45.081Z,91.10
2019-03-24T00:19:15.247Z,91.00
2019-03-24T00:21:45.430Z,90.80
2019-03-24T00:24:16.050Z,90.70
2019-03-24T00:26:46.291Z,90.60
2019-03-24T00:29:16.730Z,90.60
2019-03-24T00:31:47.135Z,90.50
2019-03-24T00:34:18.073Z,90.50
2019-03-24T00:36:48.562Z,90.40
2019-03-24T00:39:19.063Z,90.30
2019-03-24T00:41:49.239Z,90.60
2019-03-24T00:44:19.754Z,90.40
2019-03-24T00:46:50.192Z,90.40
2019-03-24T00:49:20.686Z,90.40
2019-03-24T00:51:51.134Z,90.20
2019-03-24T00:54:21.296Z,90.30
2019-03-24T00:56:51.788Z,90.30
2019-03-24T00:59:21.948Z,90.20
2019-03-24T01:01:52.178Z,90.50
2019-03-24T01:04:22.412Z,90.90
2019-03-24T01:06:53.960Z,91.00
2019-03-24T01:09:24.192Z,90.90
2019-03-24T01:11:54.697Z,91.20
2019-03-24T01:14:24.992Z,91.20
2019-03-24T01:16:55.472Z,90.90
2019-03-24T01:19:25.639Z,91.10
2019-03-24T01:21:56.284Z,90.90
2019-03-24T01:24:27.062Z,90.70
2019-03-24T01:26:57.322Z,90.70
2019-03-24T01:29:27.538Z,91.10
2019-03-24T01:31:57.716Z,90.50
2019-03-24T01:34:27.886Z,90.80
2019-03-24T01:36:58.051Z,90.80
2019-03-24T01:39:28.219Z,90.70
2019-03-24T01:41:58.387Z,90.50
2019-03-24T01:44:28.551Z,90.40
2019-03-24T01:46:58.807Z,90.60
2019-03-24T01:49:28.971Z,90.70
2019-03-24T01:51:59.130Z,90.70
2019-03-24T01:54:29.293Z,90.80
2019-03-24T01:56:59.446Z,90.60
2019-03-24T01:59:29.947Z,90.70
2019-03-24T02:02:00.354Z,90.80
2019-03-24T02:04:31.799Z,90.70
2019-03-24T02:07:02.059Z,90.90
2019-03-24T02:09:32.998Z,91.10
2019-03-24T02:12:03.619Z,91.20
2019-03-24T02:14:34.044Z,91.00
2019-03-24T02:17:04.343Z,91.10
2019-03-24T02:19:34.531Z,91.10
2019-03-24T02:22:05.698Z,91.00
2019-03-24T02:24:35.865Z,91.00
2019-03-24T02:27:06.188Z,91.10
2019-03-24T02:29:36.612Z,91.10
2019-03-24T02:32:06.941Z,91.00
2019-03-24T02:34:37.112Z,91.00
2019-03-24T02:37:07.266Z,91.00
2019-03-24T02:39:37.695Z,91.00
2019-03-24T02:42:08.115Z,91.10
2019-03-24T02:44:38.379Z,91.30
2019-03-24T02:47:08.962Z,91.10
2019-03-24T02:49:39.114Z,90.90
2019-03-24T02:52:09.280Z,90.90
2019-03-24T02:54:39.444Z,91.00
2019-03-24T02:57:09.608Z,91.40
2019-03-24T02:59:40.359Z,91.50
2019-03-24T03:02:10.822Z,91.20
2019-03-24T03:04:41.002Z,91.20
2019-03-24T03:07:11.489Z,91.60
2019-03-24T03:09:42.503Z,90.90
2019-03-24T03:12:12.744Z,91.10
2019-03-24T03:14:43.759Z,91.10
2019-03-24T03:17:13.919Z,90.80
2019-03-24T03:19:45.088Z,91.10
2019-03-24T03:22:16.021Z,91.00
2019-03-24T03:24:46.584Z,91.10
2019-03-24T03:27:16.883Z,91.30
2019-03-24T03:29:47.361Z,91.20
2019-03-24T03:32:17.827Z,91.20
2019-03-24T03:34:48.041Z,91.10
2019-03-24T03:37:18.263Z,91.00
2019-03-24T03:39:48.420Z,91.30
2019-03-24T03:42:18.599Z,91.40
2019-03-24T03:44:48.824Z,91.40
2019-03-24T03:47:19.235Z,91.40
2019-03-24T03:49:49.401Z,91.30
2019-03-24T03:52:19.918Z,91.50
2019-03-24T03:54:51.044Z,91.40
2019-03-24T03:57:21.287Z,91.30
2019-03-24T03:59:52.420Z,91.20
2019-03-24T04:02:23.073Z,91.30
2019-03-24T04:04:54.228Z,91.20
2019-03-24T04:07:27.810Z,91.20
2019-03-24T04:09:58.297Z,91.10
2019-03-24T04:12:28.459Z,91.70
2019-03-24T04:14:59.705Z,91.40
2019-03-24T04:17:29.859Z,91.20
2019-03-24T04:20:00.019Z,91.30
2019-03-24T04:22:30.222Z,91.30
2019-03-24T04:25:00.715Z,91.40
2019-03-24T04:27:31.518Z,91.30
2019-03-24T04:30:02.065Z,91.50
2019-03-24T04:32:32.620Z,91.50
2019-03-24T04:35:02.865Z,91.70
2019-03-24T04:37:33.281Z,91.80
2019-03-24T04:40:03.701Z,91.80
2019-03-24T04:42:34.422Z,91.70
2019-03-24T04:45:05.241Z,91.50
2019-03-24T04:47:35.416Z,91.60
2019-03-24T04:50:06.298Z,91.70
2019-03-24T04:52:36.536Z,91.50
2019-03-24T04:55:07.359Z,91.40
2019-03-24T04:57:38.538Z,91.30
2019-03-24T05:00:10.171Z,91.50
2019-03-24T05:02:40.467Z,91.90
2019-03-24T05:05:10.707Z,91.30
2019-03-24T05:07:41.660Z,91.70
2019-03-24T05:10:25.202Z,91.70
2019-03-24T05:12:55.954Z,91.50
2019-03-24T05:15:26.372Z,91.50
2019-03-24T05:17:56.878Z,91.60
2019-03-24T05:20:27.038Z,91.50
2019-03-24T05:22:57.344Z,91.50
2019-03-24T05:25:27.581Z,91.60
2019-03-24T05:27:57.886Z,91.70
2019-03-24T05:30:28.403Z,91.40
2019-03-24T05:32:58.584Z,91.40
2019-03-24T05:35:28.774Z,91.40
2019-03-24T05:37:59.106Z,91.70
2019-03-24T05:40:29.338Z,91.70
2019-03-24T05:43:00.563Z,91.70
2019-03-24T05:45:31.006Z,91.50
2019-03-24T05:48:01.219Z,91.60
2019-03-24T05:50:31.446Z,91.70
2019-03-24T05:53:01.672Z,91.70
2019-03-24T05:55:32.471Z,91.60
2019-03-24T05:58:02.627Z,91.70
2019-03-24T06:00:32.811Z,91.80
2019-03-24T06:03:02.963Z,92.00
2019-03-24T06:05:33.134Z,92.30
2019-03-24T06:08:03.304Z,92.20
2019-03-24T06:10:33.464Z,92.10
2019-03-24T06:13:03.734Z,92.10
2019-03-24T06:15:33.896Z,92.10
2019-03-24T06:18:04.227Z,92.20
2019-03-24T06:20:34.806Z,92.10
2019-03-24T06:23:05.056Z,92.10
2019-03-24T06:25:35.295Z,92.20
2019-03-24T06:28:05.912Z,92.30
2019-03-24T06:30:36.322Z,92.20
2019-03-24T06:33:06.795Z,92.20
2019-03-24T06:35:36.973Z,92.20
2019-03-24T06:38:07.145Z,92.20
2019-03-24T06:40:37.302Z,92.20
2019-03-24T06:43:07.782Z,92.30
2019-03-24T06:45:38.308Z,92.50
2019-03-24T06:48:09.516Z,92.50
2019-03-24T06:50:39.698Z,92.50
2019-03-24T06:53:09.865Z,92.50
2019-03-24T06:55:40.421Z,92.40
2019-03-24T06:58:10.650Z,92.40
2019-03-24T07:00:41.374Z,92.50
2019-03-24T07:03:12.507Z,92.50
2019-03-24T07:05:42.702Z,92.50
2019-03-24T07:08:12.858Z,92.60
2019-03-24T07:10:43.522Z,92.70
2019-03-24T07:13:13.913Z,92.80
2019-03-24T07:15:44.095Z,92.90
2019-03-24T07:18:15.333Z,93.20
2019-03-24T07:20:45.795Z,93.10
2019-03-24T07:23:15.960Z,92.90
2019-03-24T07:25:46.641Z,93.20
2019-03-24T07:28:16.902Z,93.10
2019-03-24T07:30:47.518Z,92.90
2019-03-24T07:33:17.770Z,93.10
2019-03-24T07:35:47.931Z,93.10
2019-03-24T07:38:18.082Z,93.10
2019-03-24T07:40:48.551Z,93.00
2019-03-24T07:43:18.710Z,92.80
2019-03-24T07:45:48.899Z,92.80
2019-03-24T07:48:19.623Z,92.80
2019-03-24T07:50:49.903Z,92.70
2019-03-24T07:53:20.445Z,92.60
2019-03-24T07:55:50.703Z,92.60
2019-03-24T07:58:21.209Z,92.70
2019-03-24T08:00:51.376Z,92.90
2019-03-24T08:03:21.634Z,92.80
2019-03-24T08:05:52.175Z,92.60
2019-03-24T08:08:22.334Z,92.60
2019-03-24T08:10:52.550Z,92.70
2019-03-24T08:13:22.725Z,92.50
2019-03-24T08:15:52.883Z,92.50
2019-03-24T08:18:29.911Z,92.30
2019-03-24T08:20:55.762Z,92.20
2019-03-24T08:23:25.955Z,91.90
2019-03-24T08:25:56.219Z,92.30
2019-03-24T08:28:26.485Z,92.40
2019-03-24T08:30:56.634Z,92.40
2019-03-24T08:33:27.098Z,92.30
2019-03-24T08:35:57.363Z,91.70
2019-03-24T08:38:27.561Z,91.70
2019-03-24T08:40:58.062Z,91.70
2019-03-24T08:43:28.222Z,91.90
2019-03-24T08:45:58.474Z,91.70
2019-03-24T08:48:28.714Z,91.90
2019-03-24T08:50:58.871Z,92.10
2019-03-24T08:53:29.030Z,91.20
2019-03-24T08:55:59.195Z,90.90
2019-03-24T08:58:29.378Z,90.90
2019-03-24T09:00:59.676Z,91.60
2019-03-24T09:03:29.840Z,91.00
2019-03-24T09:06:00.000Z,90.20
2019-03-24T09:08:30.176Z,88.30
2019-03-24T09:11:00.652Z,89.30
2019-03-24T09:13:30.907Z,89.90
2019-03-24T09:16:01.144Z,89.80
2019-03-24T09:18:31.734Z,90.30
2019-03-24T09:21:01.911Z,89.50
2019-03-24T09:23:32.072Z,88.30
2019-03-24T09:26:03.130Z,86.50
2019-03-24T09:28:33.422Z,87.30
2019-03-24T09:31:03.707Z,89.10
2019-03-24T09:33:34.061Z,88.60
2019-03-24T09:36:04.449Z,88.10
2019-03-24T09:38:34.621Z,86.70
2019-03-24T09:41:05.016Z,86.50
2019-03-24T09:43:35.199Z,88.00
2019-03-24T09:46:05.447Z,87.70
2019-03-24T09:48:35.734Z,82.40
2019-03-24T09:51:05.907Z,84.10
2019-03-24T09:53:36.139Z,85.20
2019-03-24T09:56:06.431Z,86.90
2019-03-24T09:58:36.946Z,84.70
2019-03-24T10:01:07.295Z,85.60
2019-03-24T10:03:37.559Z,84.60
2019-03-24T10:06:07.731Z,83.60
2019-03-24T10:08:46.742Z,83.10
2019-03-24T10:11:10.222Z,84.60
2019-03-24T10:13:41.471Z,83.20
2019-03-24T10:16:11.884Z,82.90
2019-03-24T10:18:42.125Z,80.30
2019-03-24T10:21:12.364Z,82.50
2019-03-24T10:23:42.534Z,82.30
2019-03-24T10:26:12.936Z,82.80
2019-03-24T10:28:43.130Z,85.90
2019-03-24T10:31:13.564Z,83.50
2019-03-24T10:33:43.787Z,82.40
2019-03-24T10:36:14.319Z,82.50
2019-03-24T10:38:44.648Z,82.00
2019-03-24T10:41:14.830Z,82.50
2019-03-24T10:43:45.235Z,77.20
2019-03-24T10:46:15.566Z,78.70
2019-03-24T10:48:45.839Z,76.50
2019-03-24T10:51:16.249Z,77.50
2019-03-24T10:53:46.470Z,77.10
2019-03-24T10:56:17.461Z,79.60
2019-03-24T10:58:47.639Z,75.70
2019-03-24T11:01:18.083Z,76.00
2019-03-24T11:03:48.331Z,75.70
2019-03-24T11:06:18.540Z,78.80
2019-03-24T11:08:49.027Z,78.40
2019-03-24T11:11:19.511Z,71.90
2019-03-24T11:13:49.820Z,74.80
2019-03-24T11:16:20.336Z,78.80
2019-03-24T11:18:50.898Z,74.30
2019-03-24T11:21:21.088Z,68.60
2019-03-24T11:23:52.211Z,72.40
2019-03-24T11:26:22.375Z,75.30
2019-03-24T11:28:52.778Z,69.70
2019-03-24T11:31:23.002Z,69.20
2019-03-24T11:33:53.153Z,72.50
2019-03-24T11:36:23.352Z,70.70
2019-03-24T11:38:53.609Z,65.80
2019-03-24T11:41:23.924Z,69.80
2019-03-24T11:43:54.431Z,64.10
2019-03-24T11:46:25.682Z,68.70
2019-03-24T11:48:55.975Z,66.60
2019-03-24T11:51:26.433Z,66.70
2019-03-24T11:53:56.855Z,65.80
2019-03-24T11:56:27.059Z,63.60
2019-03-24T11:58:57.295Z,65.00
2019-03-24T12:01:37.772Z,64.80
2019-03-24T12:03:59.594Z,64.80
2019-03-24T12:06:30.013Z,62.00
2019-03-24T12:09:00.579Z,62.80
2019-03-24T12:11:30.899Z,64.40
2019-03-24T12:14:01.584Z,64.80
2019-03-24T12:16:32.320Z,63.40
2019-03-24T12:19:02.590Z,63.80
2019-03-24T12:21:33.084Z,64.10
2019-03-24T12:24:03.267Z,61.90
2019-03-24T12:26:33.443Z,60.80
2019-03-24T12:29:03.611Z,62.20
2019-03-24T12:31:34.070Z,59.90
2019-03-24T12:34:04.561Z,59.70
2019-03-24T12:36:34.733Z,58.00
2019-03-24T12:39:06.853Z,59.90
2019-03-24T12:41:37.015Z,61.10
2019-03-24T12:44:07.515Z,63.40
2019-03-24T12:46:37.707Z,63.10
2019-03-24T12:49:07.887Z,60.60
2019-03-24T12:51:38.060Z,61.40
2019-03-24T12:54:08.527Z,62.00
2019-03-24T12:56:38.702Z,63.50
2019-03-24T12:59:11.104Z,61.50
2019-03-24T13:01:42.536Z,60.70
2019-03-24T13:04:13.924Z,60.20
2019-03-24T13:06:45.257Z,61.00
2019-03-24T13:09:16.480Z,61.10
2019-03-24T13:11:46.768Z,60.90
2019-03-24T13:14:17.305Z,59.70
2019-03-24T13:16:47.472Z,58.40
2019-03-24T13:19:17.676Z,59.10
2019-03-24T13:21:47.850Z,58.10
2019-03-24T13:24:18.338Z,59.40
2019-03-24T13:26:48.656Z,59.00
2019-03-24T13:29:19.165Z,56.70
2019-03-24T13:31:49.539Z,57.30
2019-03-24T13:34:19.832Z,60.10
2019-03-24T13:36:50.152Z,58.60
2019-03-24T13:39:20.393Z,58.40
2019-03-24T13:41:50.683Z,58.00
2019-03-24T13:44:21.210Z,59.20
2019-03-24T13:46:51.398Z,55.70
2019-03-24T13:49:21.630Z,57.70
2019-03-24T13:51:51.863Z,58.80
2019-03-24T13:54:22.070Z,59.90
2019-03-24T13:56:52.631Z,60.80
2019-03-24T13:59:22.777Z,59.70
2019-03-24T14:01:53.050Z,60.40
2019-03-24T14:04:23.530Z,58.70
2019-03-24T14:06:53.711Z,55.90
2019-03-24T14:09:23.886Z,55.70
2019-03-24T14:11:54.064Z,56.10
2019-03-24T14:14:24.522Z,56.60
2019-03-24T14:16:54.700Z,57.90
2019-03-24T14:19:25.146Z,57.20
2019-03-24T14:21:55.360Z,57.00
2019-03-24T14:24:25.513Z,57.00
2019-03-24T14:26:56.044Z,56.60
2019-03-24T14:29:27.289Z,57.10
2019-03-24T14:31:57.554Z,57.60
2019-03-24T14:34:27.732Z,58.30
2019-03-24T14:36:57.905Z,59.70
2019-03-24T14:39:28.080Z,59.80
2019-03-24T14:41:58.534Z,59.80
2019-03-24T14:44:29.462Z,58.20
2019-03-24T14:46:59.639Z,57.10
2019-03-24T14:49:29.799Z,57.20
2019-03-24T14:51:59.979Z,57.80
2019-03-24T14:54:30.538Z,57.30
2019-03-24T14:57:01.000Z,57.60
2019-03-24T14:59:31.599Z,58.20
2019-03-24T15:02:01.799Z,58.10
2019-03-24T15:04:32.275Z,58.70
2019-03-24T15:07:02.510Z,58.70
2019-03-24T15:09:32.686Z,57.20
2019-03-24T15:12:02.869Z,57.60
2019-03-24T15:14:33.358Z,59.00
2019-03-24T15:17:03.714Z,59.10
2019-03-24T15:19:33.884Z,59.00
2019-03-24T15:22:04.180Z,57.70
2019-03-24T15:24:34.435Z,55.90
2019-03-24T15:27:04.779Z,55.10
2019-03-24T15:29:34.930Z,56.60
2019-03-24T15:32:05.118Z,58.10
2019-03-24T15:34:35.379Z,58.90
2019-03-24T15:37:05.783Z,60.50
2019-03-24T15:39:36.087Z,62.10
2019-03-24T15:42:06.420Z,61.80
2019-03-24T15:44:36.594Z,61.90
2019-03-24T15:47:07.423Z,60.80
2019-03-24T15:49:37.676Z,60.80
2019-03-24T15:52:07.919Z,61.60
2019-03-24T15:54:38.273Z,61.30
2019-03-24T15:57:08.426Z,59.70
2019-03-24T15:59:38.612Z,60.20
2019-03-24T16:02:08.858Z,60.20
2019-03-24T16:04:39.052Z,60.00
2019-03-24T16:07:09.206Z,60.20
2019-03-24T16:09:39.498Z,61.00
2019-03-24T16:12:10.710Z,61.90
2019-03-24T16:14:40.890Z,59.70
2019-03-24T16:17:11.307Z,61.60
2019-03-24T16:19:41.632Z,62.00
2019-03-24T16:22:11.808Z,62.10
2019-03-24T16:24:42.271Z,62.20
2019-03-24T16:27:12.670Z,63.30
2019-03-24T16:29:44.498Z,63.70
2019-03-24T16:32:14.650Z,64.60
2019-03-24T16:34:45.639Z,64.80
2019-03-24T16:37:16.130Z,65.30
2019-03-24T16:39:46.312Z,65.00
2019-03-24T16:42:16.474Z,65.70
2019-03-24T16:44:46.734Z,65.90
2019-03-24T16:47:16.894Z,66.90
2019-03-24T16:49:47.067Z,67.00
2019-03-24T16:52:17.571Z,68.00
2019-03-24T16:54:47.742Z,68.40
2019-03-24T16:57:17.935Z,68.10
2019-03-24T16:59:48.101Z,67.90
2019-03-24T17:02:18.270Z,67.90
2019-03-24T17:04:48.481Z,68.20
2019-03-24T17:07:18.935Z,68.70
2019-03-24T17:09:50.074Z,70.50
2019-03-24T17:12:20.482Z,68.90
2019-03-24T17:14:50.746Z,69.50
2019-03-24T17:17:21.172Z,71.00
2019-03-24T17:19:51.732Z,71.40
2019-03-24T17:22:22.225Z,71.60
2019-03-24T17:24:52.514Z,71.90
2019-03-24T17:27:22.945Z,72.70
2019-03-24T17:29:54.450Z,73.50
2019-03-24T17:32:24.614Z,74.20
2019-03-24T17:34:54.839Z,73.60
2019-03-24T17:37:26.858Z,75.10
2019-03-24T17:39:57.093Z,74.40
2019-03-24T17:42:27.263Z,76.00
2019-03-24T17:44:57.427Z,76.90
2019-03-24T17:47:27.603Z,76.40
2019-03-24T17:49:57.831Z,78.00
2019-03-24T17:52:28.162Z,78.00
2019-03-24T17:54:58.434Z,78.90
2019-03-24T17:57:28.609Z,79.30
2019-03-24T17:59:58.770Z,79.10
2019-03-24T18:02:29.183Z,81.40
2019-03-24T18:04:59.434Z,81.30
2019-03-24T18:07:30.771Z,81.70
2019-03-24T18:10:01.060Z,82.30
2019-03-24T18:12:31.300Z,81.30
2019-03-24T18:15:01.829Z,82.70
2019-03-24T18:17:33.168Z,82.70
2019-03-24T18:20:03.918Z,81.20
2019-03-24T18:22:34.104Z,81.50
2019-03-24T18:25:06.295Z,82.20
2019-03-24T18:27:36.807Z,82.90
2019-03-24T18:30:09.901Z,83.70
2019-03-24T18:32:40.530Z,83.70
2019-03-24T18:35:11.416Z,83.80
2019-03-24T18:37:41.595Z,84.50
2019-03-24T18:40:12.354Z,84.70
2019-03-24T18:42:42.671Z,85.20
2019-03-24T18:45:13.939Z,85.20
2019-03-24T18:47:44.156Z,85.40
2019-03-24T18:50:16.290Z,85.30
2019-03-24T18:52:46.454Z,85.60
2019-03-24T18:55:17.362Z,86.20
2019-03-24T18:57:47.543Z,85.50
2019-03-24T19:00:18.412Z,85.80
2019-03-24T19:02:48.623Z,85.40
2019-03-24T19:05:19.355Z,85.90
2019-03-24T19:07:50.262Z,85.70
2019-03-24T19:10:20.959Z,85.60
2019-03-24T19:12:52.431Z,85.90
2019-03-24T19:15:22.842Z,85.80
2019-03-24T19:17:53.134Z,85.70
2019-03-24T19:20:23.291Z,86.80
2019-03-24T19:22:53.480Z,85.90
2019-03-24T19:25:23.670Z,85.90
2019-03-24T19:27:53.848Z,85.80
2019-03-24T19:30:33.895Z,85.10
2019-03-24T19:33:04.219Z,84.40
2019-03-24T19:35:34.456Z,86.50
2019-03-24T19:38:04.902Z,84.70
2019-03-24T19:40:35.229Z,85.00
2019-03-24T19:43:05.486Z,84.60
2019-03-24T19:45:35.717Z,85.80
2019-03-24T19:48:06.492Z,85.10
2019-03-24T19:50:36.909Z,84.10
2019-03-24T19:53:07.359Z,84.70
2019-03-24T19:55:37.612Z,84.40
2019-03-24T19:58:07.787Z,84.00
2019-03-24T20:00:38.445Z,83.70
2019-03-24T20:03:08.962Z,83.50
2019-03-24T20:05:39.372Z,83.20
2019-03-24T20:08:09.838Z,83.40
2019-03-24T20:10:40.003Z,83.40
2019-03-24T20:13:10.174Z,83.90
2019-03-24T20:15:40.686Z,83.70
2019-03-24T20:18:10.848Z,83.00
2019-03-24T20:20:41.011Z,83.50
2019-03-24T20:23:11.255Z,82.90
2019-03-24T20:25:41.718Z,84.00
2019-03-24T20:28:11.875Z,82.90
2019-03-24T20:30:42.126Z,82.30
2019-03-24T20:33:12.363Z,82.80
2019-03-24T20:35:42.931Z,82.60
2019-03-24T20:38:13.585Z,82.60
2019-03-24T20:40:43.802Z,83.20
2019-03-24T20:43:14.221Z,82.30
2019-03-24T20:45:44.778Z,82.40
2019-03-24T20:48:14.955Z,82.10
2019-03-24T20:50:45.244Z,81.90
2019-03-24T20:53:18.453Z,81.40
2019-03-24T20:55:47.540Z,81.30
2019-03-24T20:58:17.803Z,81.10
2019-03-24T21:00:47.983Z,81.20
2019-03-24T21:03:18.404Z,80.70
2019-03-24T21:05:48.575Z,80.30
2019-03-24T21:08:18.788Z,80.40
2019-03-24T21:10:48.968Z,79.70
2019-03-24T21:13:19.180Z,79.20
2019-03-24T21:15:49.342Z,79.50
2019-03-24T21:18:19.926Z,79.20
2019-03-24T21:20:50.251Z,79.00
2019-03-24T21:23:29.467Z,78.60
2019-03-24T21:25:53.110Z,78.90
2019-03-24T21:28:23.285Z,78.60
2019-03-24T21:30:53.768Z,78.30
2019-03-24T21:33:23.924Z,78.70
2019-03-24T21:35:54.082Z,78.70
2019-03-24T21:38:24.328Z,78.50
2019-03-24T21:40:54.504Z,78.50
2019-03-24T21:43:24.944Z,78.50
2019-03-24T21:45:55.389Z,78.70
2019-03-24T21:48:25.638Z,78.60
2019-03-24T21:50:55.809Z,78.70
2019-03-24T21:53:25.970Z,79.10
2019-03-24T21:55:56.388Z,79.00
2019-03-24T21:58:26.543Z,79.10
2019-03-24T22:00:56.961Z,79.40
2019-03-24T22:03:27.118Z,79.60
2019-03-24T22:05:57.597Z,80.40
2019-03-24T22:08:27.808Z,80.70
2019-03-24T22:10:58.267Z,80.40
2019-03-24T22:13:28.418Z,80.70
2019-03-24T22:15:58.596Z,81.00
2019-03-24T22:18:28.746Z,81.60
2019-03-24T22:20:59.178Z,81.60
2019-03-24T22:23:29.343Z,81.60
2019-03-24T22:26:00.016Z,81.70
2019-03-24T22:28:30.231Z,81.90
2019-03-24T22:31:00.663Z,82.50
2019-03-24T22:33:30.983Z,82.60
2019-03-24T22:36:01.502Z,83.50
2019-03-24T22:38:32.296Z,83.30
2019-03-24T22:41:02.532Z,84.20
2019-03-24T22:43:32.687Z,84.50
2019-03-24T22:46:02.843Z,84.20
2019-03-24T22:48:33.019Z,83.60
2019-03-24T22:51:03.247Z,84.30
2019-03-24T22:53:33.951Z,84.70
2019-03-24T22:56:04.183Z,84.40
2019-03-24T22:58:34.436Z,84.50
2019-03-24T23:01:05.063Z,84.40
2019-03-24T23:03:36.856Z,84.30
2019-03-24T23:06:07.171Z,84.40
2019-03-24T23:08:37.359Z,84.00
2019-03-24T23:11:07.658Z,83.00
2019-03-24T23:13:38.146Z,84.50
2019-03-24T23:16:08.653Z,84.20
2019-03-24T23:18:38.833Z,84.60
2019-03-24T23:21:10.173Z,84.80
2019-03-24T23:23:40.358Z,83.60
2019-03-24T23:26:10.770Z,83.30
2019-03-24T23:28:41.010Z,84.30
2019-03-24T23:31:11.221Z,84.20
2019-03-24T23:33:41.395Z,83.80
2019-03-24T23:36:11.548Z,83.90
2019-03-24T23:38:41.711Z,84.00
2019-03-24T23:41:12.120Z,85.00
2019-03-24T23:43:42.278Z,85.30
2019-03-24T23:46:12.435Z,84.80
2019-03-24T23:48:42.607Z,84.80
2019-03-24T23:51:13.828Z,84.60
2019-03-24T23:53:44.261Z,83.80
2019-03-24T23:56:14.555Z,83.50
2019-03-24T23:58:44.720Z,83.80
